CAMANCHE RESERVOIR (CMN)

Elevation: 236' · MOKELUMNE R basin · Operator: East Bay Municipal Utility District

Provisional data, subject to change.
Query executed Friday at 18:40:27   clock

Select a sensor type for a plot of data.
Note: Reservoir Flows are daily averages.

Earlier

Date RES ELE    STORAGE    RES CHG    TOC STO    ABV TOC    OUTFLOW    INFLOW   
 FEET   AF   AF   AF   AF   CFS   CFS  
11/20/2014 184.97 126180 -502 291840 -165660 297 11
11/21/2014 184.84 125680 -490 291440 -- 249 11
11/22/2014 184.78 125440 -239 290920 -- 232 11
11/23/2014 184.64 124900 -540 290230 -165330 231 11
11/24/2014 184.52 124440 -440 289790 -165350 231 11
11/25/2014 184.42 124060 -393 289390 -165330 231 11
11/26/2014 184.31 123657 -403 -- -- 232 0
11/27/2014 184.20 123210 -465 288280 -- 231 11
11/28/2014 184.08 122760 -437 287760 -- 233 11
11/29/2014 183.99 122410 -309 287260 -- 235 11
11/30/2014 183.91 122110 -272 286770 -164660 234 11
12/01/2014 183.80 121690 -367 286060 -164370 232 11
12/02/2014 183.78 121620 -67 285490 -163870 231 11
12/03/2014 183.73 121430 -130 284940 -- 231 11
12/04/2014 183.66 121160 -280 284100 -- 230 11
12/05/2014 183.55 120750 -373 283610 -- 231 11
12/06/2014 183.45 120370 -409 283060 -- 231 11
12/07/2014 183.36 120030 -294 282520 -162490 231 11
12/08/2014 183.47 120450 417 282980 -162530 231 496
12/09/2014 183.56 120790 327 283330 -162540 231 429
12/10/2014 183.71 121350 525 283860 -162510 231 488
12/11/2014 184.11 122870 1579 283450 -160580 231 482
12/12/2014 184.39 123940 1125 282450 -- 231 489
12/13/2014 184.53 124480 512 282670 -- 231 492
12/14/2014 184.53 124480 -394 281970 -157490 231 11
12/15/2014 184.77 125410 947 282550 -157140 232 636
12/16/2014 185.19 127040 1620 283700 -156660 231 895
12/17/2014 185.56 128490 1485 284900 -156410 231 899
12/18/2014 185.90 129830 1316 286120 -156290 229 903
12/19/2014 -- -- -- -- -- -- --

Later | Latest

Warning! This data is preliminary and subject to revision.

Show CMN Map | Plot CMN Data | 1 Month CMN Data | Real-Time CMN Data | CMN Info